createdAt,value
2023-01-26T00:00:42.212Z,101245.16
2023-01-26T00:03:44.377Z,101251.28
2023-01-26T00:06:45.784Z,101243.38
2023-01-26T00:09:47.186Z,101244.28
2023-01-26T00:12:48.705Z,101247.75
2023-01-26T00:15:50.138Z,101240.00
2023-01-26T00:18:51.622Z,101239.97
2023-01-26T00:21:53.007Z,101237.34
2023-01-26T00:24:54.414Z,101228.66
2023-01-26T00:27:57.258Z,101227.78
2023-01-26T00:31:06.195Z,101232.97
2023-01-26T00:34:07.615Z,101228.66
2023-01-26T00:37:09.019Z,101220.84
2023-01-26T00:40:11.404Z,101220.66
2023-01-26T00:43:13.084Z,101213.47
2023-01-26T00:46:14.827Z,101215.94
2023-01-26T00:49:16.221Z,101217.56
2023-01-26T00:52:17.821Z,101214.03
2023-01-26T00:55:19.613Z,101208.00
2023-01-26T00:58:21.007Z,101205.25
2023-01-26T01:01:24.220Z,101203.44
2023-01-26T01:04:25.643Z,101196.47
2023-01-26T01:07:27.403Z,101195.63
2023-01-26T01:10:29.133Z,101202.66
2023-01-26T01:13:30.646Z,101194.25
2023-01-26T01:16:32.037Z,101190.66
2023-01-26T01:19:33.443Z,101197.53
2023-01-26T01:22:36.105Z,101191.56
2023-01-26T01:25:37.479Z,101184.41
2023-01-26T01:28:39.931Z,101188.63
2023-01-26T01:31:43.113Z,101191.00
2023-01-26T01:34:47.028Z,101189.03
2023-01-26T01:37:48.511Z,101192.59
2023-01-26T01:40:49.910Z,101192.69
2023-01-26T01:43:51.701Z,101187.50
2023-01-26T01:46:58.216Z,101196.19
2023-01-26T01:49:59.610Z,101191.00
2023-01-26T01:53:01.541Z,101189.22
2023-01-26T01:56:08.196Z,101189.25
2023-01-26T01:59:11.476Z,101190.97
2023-01-26T02:02:14.562Z,101194.50
2023-01-26T02:05:32.273Z,101183.25
2023-01-26T02:08:38.119Z,101177.88
2023-01-26T02:11:44.907Z,101178.75
2023-01-26T02:14:46.528Z,101173.53
2023-01-26T02:17:52.554Z,101176.25
2023-01-26T02:20:59.032Z,101175.28
2023-01-26T02:24:20.146Z,101175.22
2023-01-26T02:27:21.647Z,101171.81
2023-01-26T02:30:27.133Z,101174.41
2023-01-26T02:33:31.286Z,101177.94
2023-01-26T02:36:35.577Z,101171.91
2023-01-26T02:39:53.634Z,101168.28
2023-01-26T02:42:55.310Z,101153.78
2023-01-26T02:45:56.809Z,101161.56
2023-01-26T02:49:17.117Z,101161.38
2023-01-26T02:52:21.681Z,101165.59
2023-01-26T02:55:29.781Z,101152.44
2023-01-26T02:58:32.279Z,101152.56
2023-01-26T03:01:33.703Z,101158.72
2023-01-26T03:04:35.090Z,101151.69
2023-01-26T03:07:36.575Z,101149.00
2023-01-26T03:10:38.436Z,101138.72
2023-01-26T03:13:41.136Z,101142.06
2023-01-26T03:16:42.852Z,101147.22
2023-01-26T03:20:03.045Z,101133.25
2023-01-26T03:23:26.861Z,101133.31
2023-01-26T03:26:47.073Z,101122.75
2023-01-26T03:29:48.693Z,101126.19
2023-01-26T03:32:50.107Z,101135.78
2023-01-26T03:35:53.999Z,101130.53
2023-01-26T03:38:56.975Z,101127.03
2023-01-26T03:42:17.681Z,101121.69
2023-01-26T03:45:37.385Z,101118.22
2023-01-26T03:48:57.657Z,101121.66
2023-01-26T03:52:18.280Z,101112.13
2023-01-26T03:55:38.617Z,101112.22
2023-01-26T03:58:40.072Z,101113.06
2023-01-26T04:02:02.595Z,101119.16
2023-01-26T04:05:23.797Z,101117.34
2023-01-26T04:08:30.341Z,101112.16
2023-01-26T04:11:34.239Z,101103.50
2023-01-26T04:14:54.358Z,101103.47
2023-01-26T04:18:17.836Z,101107.84
2023-01-26T04:21:35.667Z,101110.50
2023-01-26T04:24:44.418Z,101109.63
2023-01-26T04:27:46.495Z,101102.56
2023-01-26T04:30:49.500Z,101100.88
2023-01-26T04:33:51.309Z,101093.88
2023-01-26T04:36:52.908Z,101094.53
2023-01-26T04:39:57.462Z,101091.94
2023-01-26T04:42:59.369Z,101082.63
2023-01-26T04:46:03.259Z,101084.50
2023-01-26T04:49:05.728Z,101088.25
2023-01-26T04:52:08.662Z,101078.66
2023-01-26T04:55:10.896Z,101087.94
2023-01-26T04:58:14.628Z,101080.06
2023-01-26T05:01:17.455Z,101081.78
2023-01-26T05:04:19.021Z,101081.94
2023-01-26T05:07:21.611Z,101078.56
2023-01-26T05:10:23.373Z,101070.09
2023-01-26T05:13:32.944Z,101070.06
2023-01-26T05:16:48.305Z,101081.16
2023-01-26T05:20:00.259Z,101077.50
2023-01-26T05:23:15.829Z,101082.69
2023-01-26T05:26:35.523Z,101076.69
2023-01-26T05:29:40.264Z,101067.06
2023-01-26T05:32:42.135Z,101073.97
2023-01-26T05:35:43.608Z,101067.19
2023-01-26T05:38:45.405Z,101069.16
2023-01-26T05:41:46.864Z,101075.00
2023-01-26T05:45:17.975Z,101078.81
2023-01-26T05:48:19.736Z,101078.66
2023-01-26T05:51:25.407Z,101076.06
2023-01-26T05:54:26.859Z,101082.00
2023-01-26T05:57:29.397Z,101080.13
2023-01-26T06:00:38.472Z,101087.97
2023-01-26T06:03:45.533Z,101088.94
2023-01-26T06:06:47.026Z,101091.56
2023-01-26T06:09:56.123Z,101087.19
2023-01-26T06:13:15.548Z,101089.72
2023-01-26T06:16:24.935Z,101085.31
2023-01-26T06:19:26.441Z,101088.47
2023-01-26T06:22:32.409Z,101093.91
2023-01-26T06:25:34.354Z,101092.19
2023-01-26T06:28:36.665Z,101092.94
2023-01-26T06:31:38.160Z,101100.75
2023-01-26T06:34:41.535Z,101097.13
2023-01-26T06:37:43.337Z,101100.53
2023-01-26T06:40:44.754Z,101100.53
2023-01-26T06:43:48.336Z,101098.75
2023-01-26T06:46:49.811Z,101104.72
2023-01-26T06:49:51.419Z,101108.28
2023-01-26T06:52:58.820Z,101104.84
2023-01-26T06:56:28.936Z,101102.22
2023-01-26T07:00:10.730Z,101108.19
2023-01-26T07:03:29.227Z,101108.94
2023-01-26T07:06:30.713Z,101113.16
2023-01-26T07:09:32.196Z,101110.66
2023-01-26T07:12:40.640Z,101107.31
2023-01-26T07:15:42.117Z,101110.78
2023-01-26T07:18:43.561Z,101102.97
2023-01-26T07:21:44.990Z,101108.16
2023-01-26T07:24:46.388Z,101111.59
2023-01-26T07:27:47.808Z,101103.09
2023-01-26T07:30:49.243Z,101105.66
2023-01-26T07:33:50.667Z,101102.34
2023-01-26T07:36:52.965Z,101101.44
2023-01-26T07:39:54.457Z,101114.31
2023-01-26T07:42:56.783Z,101108.28
2023-01-26T07:46:16.549Z,101113.56
2023-01-26T07:49:17.990Z,101109.94
2023-01-26T07:52:19.407Z,101116.91
2023-01-26T07:55:21.391Z,101118.88
2023-01-26T07:58:22.915Z,101122.50
2023-01-26T08:01:24.564Z,101117.34
2023-01-26T08:04:26.088Z,101119.22
2023-01-26T08:07:27.466Z,101122.75
2023-01-26T08:10:31.530Z,101121.16
2023-01-26T08:13:35.906Z,101114.34
2023-01-26T08:16:37.641Z,101124.88
2023-01-26T08:19:39.164Z,101127.22
2023-01-26T08:22:40.582Z,101131.63
2023-01-26T08:25:42.044Z,101116.16
2023-01-26T08:28:44.076Z,101120.47
2023-01-26T08:31:45.510Z,101113.75
2023-01-26T08:34:46.936Z,101118.28
2023-01-26T08:37:48.383Z,101118.97
2023-01-26T08:40:53.625Z,101121.69
2023-01-26T08:43:55.066Z,101122.47
2023-01-26T08:46:56.463Z,101123.22
2023-01-26T08:49:57.883Z,101129.78
2023-01-26T08:52:59.261Z,101133.19
2023-01-26T08:56:09.616Z,101136.47
2023-01-26T08:59:11.117Z,101129.50
2023-01-26T09:02:12.678Z,101125.31
2023-01-26T09:05:14.288Z,101128.00
2023-01-26T09:08:15.721Z,101127.28
2023-01-26T09:11:17.125Z,101124.59
2023-01-26T09:14:18.515Z,101129.78
2023-01-26T09:17:19.903Z,101131.59
2023-01-26T09:20:22.440Z,101133.91
2023-01-26T09:23:23.823Z,101128.84
2023-01-26T09:26:25.274Z,101134.88
2023-01-26T09:29:26.665Z,101133.03
2023-01-26T09:32:28.304Z,101125.09
2023-01-26T09:35:30.610Z,101131.16
2023-01-26T09:38:32.560Z,101132.03
2023-01-26T09:41:52.547Z,101135.47
2023-01-26T09:45:17.307Z,101139.66
2023-01-26T09:49:17.482Z,101137.97
2023-01-26T09:52:33.464Z,101129.94
2023-01-26T09:55:35.318Z,101137.69
2023-01-26T09:58:40.851Z,101134.25
2023-01-26T10:01:51.149Z,101131.00
2023-01-26T10:04:57.282Z,101136.00
2023-01-26T10:08:00.333Z,101134.31
2023-01-26T10:11:18.804Z,101128.22
2023-01-26T10:14:42.487Z,101134.34
2023-01-26T10:17:46.345Z,101131.56
2023-01-26T10:20:54.715Z,101122.91
2023-01-26T10:24:00.670Z,101120.16
2023-01-26T10:27:02.164Z,101120.28
2023-01-26T10:30:03.931Z,101110.78
2023-01-26T10:33:16.380Z,101121.84
2023-01-26T10:36:17.912Z,101119.97
2023-01-26T10:39:19.510Z,101115.09
2023-01-26T10:42:30.237Z,101112.47
2023-01-26T10:45:33.644Z,101106.47
2023-01-26T10:48:35.310Z,101109.91
2023-01-26T10:51:44.447Z,101107.94
2023-01-26T10:54:46.405Z,101111.72
2023-01-26T10:57:47.913Z,101107.34
2023-01-26T11:00:55.859Z,101109.13
2023-01-26T11:04:12.149Z,101097.84
2023-01-26T11:07:26.980Z,101098.13
2023-01-26T11:10:38.929Z,101092.91
2023-01-26T11:13:40.317Z,101095.53
2023-01-26T11:16:47.578Z,101095.69
2023-01-26T11:20:01.576Z,101084.41
2023-01-26T11:23:05.869Z,101087.75
2023-01-26T11:26:39.382Z,101092.06
2023-01-26T11:29:55.943Z,101086.94
2023-01-26T11:33:20.641Z,101090.41
2023-01-26T11:36:47.965Z,101081.91
2023-01-26T11:39:52.263Z,101084.44
2023-01-26T11:42:53.558Z,101083.56
2023-01-26T11:46:30.617Z,101081.25
2023-01-26T11:49:58.096Z,101075.06
2023-01-26T11:53:17.273Z,101067.97
2023-01-26T11:56:42.976Z,101068.75
2023-01-26T11:59:48.074Z,101072.22
2023-01-26T12:02:59.286Z,101046.50
2023-01-26T12:06:07.136Z,101047.19
2023-01-26T12:09:18.818Z,101052.41
2023-01-26T12:12:40.691Z,101043.09
2023-01-26T12:15:48.938Z,101043.06
2023-01-26T12:19:11.007Z,101044.78
2023-01-26T12:22:20.404Z,101038.69
2023-01-26T12:25:39.255Z,101031.91
2023-01-26T12:28:59.384Z,101021.47
2023-01-26T12:32:16.062Z,101018.13
2023-01-26T12:35:31.236Z,101013.00
2023-01-26T12:39:04.465Z,101010.44
2023-01-26T12:42:11.942Z,101012.03
2023-01-26T12:45:35.441Z,101014.59
2023-01-26T12:48:44.681Z,101007.56
2023-01-26T12:51:52.839Z,101008.53
2023-01-26T12:55:06.542Z,101001.50
2023-01-26T12:58:22.823Z,101003.22
2023-01-26T13:01:26.741Z,100991.84
2023-01-26T13:04:28.515Z,100998.78
2023-01-26T13:07:39.077Z,101003.97
2023-01-26T13:10:48.229Z,100993.69
2023-01-26T13:13:53.658Z,101005.84
2023-01-26T13:16:55.594Z,100989.28
2023-01-26T13:19:59.811Z,100998.84
2023-01-26T13:23:01.361Z,101001.25
2023-01-26T13:26:17.493Z,100998.78
2023-01-26T13:29:25.033Z,100992.69
2023-01-26T13:32:26.441Z,100991.56
2023-01-26T13:35:30.352Z,100994.97
2023-01-26T13:38:52.828Z,100993.31
2023-01-26T13:41:54.783Z,101000.34
2023-01-26T13:45:15.047Z,100995.06
2023-01-26T13:48:34.864Z,100996.03
2023-01-26T13:51:36.914Z,101003.69
2023-01-26T13:54:42.028Z,101005.31
2023-01-26T13:57:43.433Z,101003.69
2023-01-26T14:01:02.248Z,101011.59
2023-01-26T14:04:06.108Z,101013.47
2023-01-26T14:07:12.175Z,101010.06
2023-01-26T14:10:19.720Z,101010.81
2023-01-26T14:13:32.130Z,101013.28
2023-01-26T14:16:37.539Z,101009.78
2023-01-26T14:19:42.189Z,101010.63
2023-01-26T14:22:43.669Z,101017.53
2023-01-26T14:25:57.181Z,101018.31
2023-01-26T14:29:00.457Z,101008.75
2023-01-26T14:32:01.939Z,101011.44
2023-01-26T14:35:03.668Z,101013.13
2023-01-26T14:38:12.000Z,101016.69
2023-01-26T14:41:23.295Z,101024.50
2023-01-26T14:44:24.820Z,101021.16
2023-01-26T14:47:33.066Z,101025.44
2023-01-26T14:50:35.736Z,101023.69
2023-01-26T14:53:37.422Z,101029.75
2023-01-26T14:56:40.528Z,101033.09
2023-01-26T14:59:42.088Z,101040.03
2023-01-26T15:02:47.218Z,101038.28
2023-01-26T15:05:48.615Z,101044.09
2023-01-26T15:09:05.422Z,101050.97
2023-01-26T15:12:16.718Z,101049.28
2023-01-26T15:15:20.172Z,101044.09
2023-01-26T15:18:21.830Z,101043.13
2023-01-26T15:21:32.730Z,101044.09
2023-01-26T15:24:34.269Z,101044.13
2023-01-26T15:27:36.879Z,101051.03
2023-01-26T15:30:38.717Z,101051.09
2023-01-26T15:33:46.027Z,101050.16
2023-01-26T15:36:49.751Z,101047.41
2023-01-26T15:39:51.236Z,101048.47
2023-01-26T15:43:17.866Z,101045.88
2023-01-26T15:46:19.289Z,101044.63
2023-01-26T15:49:22.863Z,101044.84
2023-01-26T15:52:30.060Z,101043.34
2023-01-26T15:55:33.193Z,101038.00
2023-01-26T15:58:36.604Z,101044.31
2023-01-26T16:01:38.028Z,101042.53
2023-01-26T16:04:39.417Z,101043.34
2023-01-26T16:07:40.825Z,101042.53
2023-01-26T16:10:42.664Z,101052.75
2023-01-26T16:14:01.150Z,101050.81
2023-01-26T16:17:12.420Z,101042.97
2023-01-26T16:20:13.874Z,101043.75
2023-01-26T16:23:21.434Z,101041.38
2023-01-26T16:26:22.867Z,101040.56
2023-01-26T16:29:24.291Z,101042.44
2023-01-26T16:32:30.872Z,101037.34
2023-01-26T16:35:32.418Z,101047.75
2023-01-26T16:38:33.909Z,101044.09
2023-01-26T16:41:35.501Z,101036.94
2023-01-26T16:44:36.914Z,101042.16
2023-01-26T16:47:38.352Z,101031.84
2023-01-26T16:50:40.896Z,101043.75
2023-01-26T16:53:42.485Z,101038.63
2023-01-26T16:56:44.250Z,101039.69
2023-01-26T16:59:45.661Z,101050.31
2023-01-26T17:02:49.487Z,101052.63
2023-01-26T17:05:50.875Z,101055.31
2023-01-26T17:08:52.717Z,101054.47
2023-01-26T17:11:54.115Z,101061.47
2023-01-26T17:14:55.538Z,101056.28
2023-01-26T17:17:57.294Z,101058.03
2023-01-26T17:21:02.566Z,101061.47
2023-01-26T17:24:04.389Z,101057.56
2023-01-26T17:27:05.947Z,101057.91
2023-01-26T17:30:08.863Z,101057.91
2023-01-26T17:33:10.255Z,101056.09
2023-01-26T17:36:12.548Z,101065.31
2023-01-26T17:39:14.643Z,101054.94
2023-01-26T17:42:16.113Z,101061.72
2023-01-26T17:45:17.564Z,101057.31
2023-01-26T17:48:18.963Z,101061.63
2023-01-26T17:51:21.485Z,101068.47
2023-01-26T17:54:22.989Z,101066.72
2023-01-26T17:57:24.401Z,101066.72
2023-01-26T18:00:25.817Z,101060.66
2023-01-26T18:03:27.342Z,101061.84
2023-01-26T18:06:29.427Z,101067.91
2023-01-26T18:09:31.236Z,101066.38
2023-01-26T18:12:33.199Z,101062.03
2023-01-26T18:15:36.901Z,101062.19
2023-01-26T18:18:38.448Z,101058.50
2023-01-26T18:21:39.899Z,101071.59
2023-01-26T18:24:41.315Z,101075.94
2023-01-26T18:27:43.242Z,101073.94
2023-01-26T18:30:44.907Z,101068.63
2023-01-26T18:33:46.569Z,101062.31
2023-01-26T18:36:48.148Z,101072.69
2023-01-26T18:39:49.583Z,101076.09
2023-01-26T18:42:54.312Z,101064.38
2023-01-26T18:45:55.764Z,101067.31
2023-01-26T18:49:01.062Z,101070.97
2023-01-26T18:52:02.708Z,101064.56
2023-01-26T18:55:04.524Z,101064.56
2023-01-26T18:58:06.285Z,101068.22
2023-01-26T19:01:12.487Z,101064.66
2023-01-26T19:04:15.007Z,101066.44
2023-01-26T19:07:17.402Z,101064.94
2023-01-26T19:10:18.982Z,101072.06
2023-01-26T19:13:20.472Z,101078.19
2023-01-26T19:16:24.317Z,101072.88
2023-01-26T19:19:25.793Z,101069.38
2023-01-26T19:22:27.223Z,101062.66
2023-01-26T19:25:28.642Z,101061.75
2023-01-26T19:28:30.137Z,101062.56
2023-01-26T19:31:32.422Z,101068.53
2023-01-26T19:34:34.966Z,101068.59
2023-01-26T19:37:36.365Z,101064.97
2023-01-26T19:40:37.847Z,101065.13
2023-01-26T19:43:39.595Z,101067.81
2023-01-26T19:46:41.012Z,101061.66
2023-01-26T19:49:42.411Z,101057.50
2023-01-26T19:52:43.886Z,101060.97
2023-01-26T19:55:45.277Z,101060.03
2023-01-26T19:58:51.913Z,101057.59
2023-01-26T20:01:53.406Z,101061.16
2023-01-26T20:04:54.805Z,101063.56
2023-01-26T20:07:56.206Z,101058.53
2023-01-26T20:11:08.440Z,101055.88
2023-01-26T20:14:11.108Z,101055.22
2023-01-26T20:17:12.636Z,101053.47
2023-01-26T20:20:14.204Z,101057.69
2023-01-26T20:23:15.613Z,101063.28
2023-01-26T20:26:17.816Z,101052.03
2023-01-26T20:29:20.657Z,101055.53
2023-01-26T20:32:22.166Z,101062.44
2023-01-26T20:35:23.617Z,101056.38
2023-01-26T20:38:25.155Z,101050.88
2023-01-26T20:41:29.270Z,101050.81
2023-01-26T20:44:31.101Z,101055.16
2023-01-26T20:47:34.083Z,101051.53
2023-01-26T20:50:39.949Z,101054.47
2023-01-26T20:53:42.073Z,101053.50
2023-01-26T20:56:45.636Z,101047.44
2023-01-26T20:59:47.162Z,101051.00
2023-01-26T21:02:48.607Z,101046.78
2023-01-26T21:05:50.027Z,101047.66
2023-01-26T21:08:57.290Z,101051.88
2023-01-26T21:11:58.726Z,101049.13
2023-01-26T21:15:00.168Z,101041.16
2023-01-26T21:18:01.576Z,101036.06
2023-01-26T21:21:06.846Z,101034.25
2023-01-26T21:24:08.317Z,101035.28
2023-01-26T21:27:09.799Z,101034.41
2023-01-26T21:30:12.080Z,101031.97
2023-01-26T21:33:13.735Z,101039.13
2023-01-26T21:36:17.676Z,101041.56
2023-01-26T21:39:22.025Z,101033.69
2023-01-26T21:42:23.580Z,101031.84
2023-01-26T21:45:43.881Z,101037.81
2023-01-26T21:48:45.312Z,101022.03
2023-01-26T21:52:05.819Z,101020.25
2023-01-26T21:55:07.534Z,101025.44
2023-01-26T21:58:27.915Z,101022.00
2023-01-26T22:01:31.466Z,101015.94
2023-01-26T22:04:32.944Z,101016.97
2023-01-26T22:07:34.403Z,101004.13
2023-01-26T22:10:35.804Z,101003.09
2023-01-26T22:13:37.237Z,101002.09
2023-01-26T22:16:38.839Z,100990.75
2023-01-26T22:19:40.260Z,100992.19
2023-01-26T22:22:41.657Z,100995.63
2023-01-26T22:25:43.054Z,100995.72
2023-01-26T22:28:49.965Z,101000.19
2023-01-26T22:31:51.877Z,101002.97
2023-01-26T22:34:53.416Z,101007.41
2023-01-26T22:37:56.463Z,101003.91
2023-01-26T22:40:58.829Z,101005.66
2023-01-26T22:44:00.561Z,100998.84
2023-01-26T22:47:02.019Z,101003.19
2023-01-26T22:50:03.784Z,100996.34
2023-01-26T22:53:05.197Z,101000.53
2023-01-26T22:56:08.154Z,100997.28
2023-01-26T22:59:09.637Z,100993.66
2023-01-26T23:02:11.169Z,100997.22
2023-01-26T23:05:12.593Z,100999.66
2023-01-26T23:08:13.981Z,100997.78
2023-01-26T23:11:19.924Z,100992.47
2023-01-26T23:14:21.332Z,101000.47
2023-01-26T23:17:22.725Z,100998.75
2023-01-26T23:20:24.189Z,101005.69
2023-01-26T23:23:26.458Z,100995.31
2023-01-26T23:26:27.950Z,100984.94
2023-01-26T23:29:29.381Z,100983.25
2023-01-26T23:32:30.761Z,100985.81
2023-01-26T23:35:32.162Z,100976.41
2023-01-26T23:38:34.122Z,100975.69
2023-01-26T23:41:35.567Z,100974.88
2023-01-26T23:44:36.958Z,100972.31
2023-01-26T23:47:38.428Z,100971.53
2023-01-26T23:50:39.958Z,100967.22
2023-01-26T23:53:41.366Z,100968.94
2023-01-26T23:56:42.818Z,100965.44
2023-01-26T23:59:44.191Z,100959.09
